Time;durP1;ratioP1;P1;durP2;ratioP2;P2;SDS_P1;SDS_P2;PMS_P1;PMS_P2;Temp;Humidity;BMP_temperature;BMP_pressure;BME280_temperature;BME280_humidity;BME280_pressure;Samples;Min_cycle;Max_cycle;Signal;HPM_P1;HPM_P2
2023/07/21 00:00:00;;;;;;;;;;;;;;;20.64;100.00;99162.09;5037369;28;1232;-59
2023/07/21 00:02:27;;;;;;;;;;;;;;;20.58;100.00;99161.97;5055095;28;886;-59
2023/07/21 00:04:55;;;;;;;;;;;;;;;20.56;100.00;99168.06;5055158;28;838;-59
2023/07/21 00:07:24;;;;;;;;;;;;;;;20.54;100.00;99164.94;5055108;28;873;-59
2023/07/21 00:09:52;;;;;;;;;;;;;;;20.47;100.00;99170.97;5055078;28;1969;-59
2023/07/21 00:12:19;;;;;;;;;;;;;;;20.39;100.00;99167.00;5055356;28;822;-59
2023/07/21 00:14:46;;;;;;;;;;;;;;;20.29;100.00;99162.75;5055125;28;1278;-59
2023/07/21 00:17:12;;;;;;;;;;;;;;;20.21;100.00;99168.00;5055498;28;826;-59
2023/07/21 00:19:38;;;;;;;;;;;;;;;20.15;100.00;99176.31;5054894;28;1201;-59
2023/07/21 00:22:06;;;;;;;;;;;;;;;20.11;100.00;99175.72;5054789;28;878;-59
2023/07/21 00:24:32;;;;;;;;;;;;;;;20.10;100.00;99176.22;5055058;28;1236;-59
2023/07/21 00:27:01;;;;;;;;;;;;;;;20.07;100.00;99177.97;5054808;28;818;-60
2023/07/21 00:29:29;;;;;;;;;;;;;;;20.14;100.00;99176.78;5055014;28;1894;-60
2023/07/21 00:31:56;;;;;;;;;;;;;;;20.11;100.00;99167.31;5054806;28;854;-61
2023/07/21 00:34:24;;;;;;;;;;;;;;;20.08;100.00;99181.53;5053973;28;838;-61
2023/07/21 00:36:54;;;;;;;;;;;;;;;20.01;100.00;99179.88;5054625;28;890;-59
2023/07/21 00:39:20;;;;;;;;;;;;;;;20.01;100.00;99179.88;5054506;28;884;-60
2023/07/21 00:41:47;;;;;;;;;;;;;;;20.03;100.00;99174.56;5054357;28;850;-60
2023/07/21 00:44:14;;;;;;;;;;;;;;;20.06;100.00;99179.22;5054565;28;798;-59
2023/07/21 00:46:41;;;;;;;;;;;;;;;20.08;100.00;99187.13;5054823;28;893;-60
2023/07/21 00:49:09;;;;;;;;;;;;;;;20.11;100.00;99184.16;5054236;28;1906;-59
2023/07/21 00:51:37;;;;;;;;;;;;;;;20.12;100.00;99179.31;5054575;28;953;-59
2023/07/21 00:54:03;;;;;;;;;;;;;;;20.22;100.00;99169.53;5036382;28;1320;-60
2023/07/21 00:56:31;;;;;;;;;;;;;;;20.34;100.00;99173.31;5054224;28;819;-60
2023/07/21 00:58:59;;;;;;;;;;;;;;;20.44;100.00;99169.16;5054147;28;892;-59
2023/07/21 01:01:27;;;;;;;;;;;;;;;20.44;100.00;99171.97;5054154;28;782;-60
2023/07/21 01:03:54;;;;;;;;;;;;;;;20.55;100.00;99168.56;5054380;28;1029;-60
2023/07/21 01:06:26;;;;;;;;;;;;;;;20.65;100.00;99169.22;5054099;28;881;-59
2023/07/21 01:08:54;;;;;;;;;;;;;;;20.76;100.00;99170.19;5053933;28;1894;-60
2023/07/21 01:11:22;;;;;;;;;;;;;;;20.91;100.00;99164.53;5053964;28;874;-59
2023/07/21 01:13:50;;;;;;;;;;;;;;;21.20;100.00;99169.25;5035914;28;1303;-59
2023/07/21 01:16:17;;;;;;;;;;;;;;;21.43;100.00;99180.03;5053831;28;875;-60
2023/07/21 01:18:45;;;;;;;;;;;;;;;21.49;100.00;99183.69;5053788;28;815;-59
2023/07/21 01:21:14;;;;;;;;;;;;;;;21.59;100.00;99185.06;5053715;28;882;-59
2023/07/21 01:24:07;;;;;;;;;;;;;;;21.65;100.00;99185.13;5053623;28;898;-59
2023/07/21 01:26:36;;;;;;;;;;;;;;;21.57;100.00;99177.16;5050564;28;1204;-60
2023/07/21 01:29:05;;;;;;;;;;;;;;;21.41;100.00;99181.28;5053559;28;1886;-59
2023/07/21 01:31:33;;;;;;;;;;;;;;;21.20;100.00;99177.66;5053463;28;889;-60
2023/07/21 01:34:01;;;;;;;;;;;;;;;21.01;100.00;99184.81;5035674;28;1447;-59
2023/07/21 01:36:30;;;;;;;;;;;;;;;20.85;100.00;99180.53;5053523;28;846;-59
2023/07/21 01:38:58;;;;;;;;;;;;;;;20.83;100.00;99176.66;5053424;28;852;-59
2023/07/21 01:41:26;;;;;;;;;;;;;;;20.88;100.00;99178.75;5053426;28;857;-59
2023/07/21 01:43:53;;;;;;;;;;;;;;;20.98;100.00;99189.38;5053283;28;877;-59
2023/07/21 01:46:20;;;;;;;;;;;;;;;21.06;100.00;99188.97;5053298;28;1581;-59
2023/07/21 01:48:47;;;;;;;;;;;;;;;21.12;100.00;99182.19;5052983;28;1898;-59
2023/07/21 01:51:19;;;;;;;;;;;;;;;21.06;100.00;99174.91;5053200;28;790;-59
2023/07/21 01:53:48;;;;;;;;;;;;;;;21.10;100.00;99178.28;5053079;28;862;-60
2023/07/21 01:56:20;;;;;;;;;;;;;;;21.29;100.00;99182.38;5053262;28;1181;-59
2023/07/21 01:58:47;;;;;;;;;;;;;;;21.56;100.00;99186.84;5053082;28;858;-59
2023/07/21 02:01:16;;;;;;;;;;;;;;;21.81;100.00;99185.31;5052899;28;817;-59
2023/07/21 02:03:45;;;;;;;;;;;;;;;22.00;100.00;99179.38;5052946;28;807;-59
2023/07/21 02:06:16;;;;;;;;;;;;;;;22.27;100.00;99182.97;5035045;28;1326;-59
2023/07/21 02:08:43;;;;;;;;;;;;;;;22.50;100.00;99186.75;5052684;28;1886;-59
2023/07/21 02:11:12;;;;;;;;;;;;;;;22.70;100.00;99194.31;5052814;28;862;-59
2023/07/21 02:13:39;;;;;;;;;;;;;;;22.81;100.00;99200.06;5052913;28;862;-59
2023/07/21 02:16:06;;;;;;;;;;;;;;;22.83;100.00;99203.13;5052713;28;799;-59
2023/07/21 02:18:35;;;;;;;;;;;;;;;22.91;100.00;99203.44;5052632;28;906;-59
2023/07/21 02:21:02;;;;;;;;;;;;;;;22.85;100.00;99194.94;5052401;28;918;-59
2023/07/21 02:23:29;;;;;;;;;;;;;;;22.65;100.00;99203.50;5034675;28;1524;-59
2023/07/21 02:25:55;;;;;;;;;;;;;;;22.57;100.00;99197.56;5052507;28;799;-59
2023/07/21 02:28:22;;;;;;;;;;;;;;;22.73;100.00;99198.97;5052648;28;1917;-59
2023/07/21 02:31:10;;;;;;;;;;;;;;;22.82;100.00;99193.13;5052354;28;873;-58
2023/07/21 02:33:37;;;;;;;;;;;;;;;23.00;100.00;99201.22;5052413;28;1004;-59
2023/07/21 02:36:05;;;;;;;;;;;;;;;23.09;100.00;99191.78;5052361;28;858;-59
2023/07/21 02:38:32;;;;;;;;;;;;;;;23.11;100.00;99199.72;5052333;28;840;-59
2023/07/21 02:41:03;;;;;;;;;;;;;;;23.07;100.00;99213.31;5052281;28;872;-59
2023/07/21 02:43:31;;;;;;;;;;;;;;;22.86;100.00;99212.63;5052548;28;798;-59
2023/07/21 02:45:58;;;;;;;;;;;;;;;22.70;100.00;99230.94;5052615;28;1053;-59
2023/07/21 02:48:25;;;;;;;;;;;;;;;22.63;100.00;99232.94;5052083;28;1973;-59
2023/07/21 02:50:55;;;;;;;;;;;;;;;22.64;100.00;99233.72;5052303;28;854;-59
2023/07/21 02:53:22;;;;;;;;;;;;;;;22.74;100.00;99239.94;5052079;28;826;-59
2023/07/21 02:55:49;;;;;;;;;;;;;;;22.70;100.00;99236.56;5034186;28;1399;-59
2023/07/21 02:58:17;;;;;;;;;;;;;;;22.55;100.00;99233.88;5051693;28;878;-59
2023/07/21 03:00:44;;;;;;;;;;;;;;;22.50;100.00;99238.19;5051935;28;814;-59
2023/07/21 03:03:14;;;;;;;;;;;;;;;22.49;100.00;99241.50;5052057;28;870;-59
2023/07/21 03:05:41;;;;;;;;;;;;;;;22.39;100.00;99244.50;5051952;28;893;-59
2023/07/21 03:08:08;;;;;;;;;;;;;;;22.32;100.00;99246.97;5051813;28;1894;-59
2023/07/21 03:10:35;;;;;;;;;;;;;;;22.28;100.00;99254.91;5051846;28;858;-59
2023/07/21 03:13:02;;;;;;;;;;;;;;;22.18;100.00;99252.19;5051889;28;831;-59
2023/07/21 03:15:29;;;;;;;;;;;;;;;22.11;100.00;99260.31;5051863;28;854;-59
2023/07/21 03:17:57;;;;;;;;;;;;;;;22.35;100.00;99260.06;5051806;28;909;-59
2023/07/21 03:20:24;;;;;;;;;;;;;;;22.53;100.00;99261.78;5051983;28;823;-59
2023/07/21 03:22:51;;;;;;;;;;;;;;;22.46;100.00;99262.22;5051743;28;823;-59
2023/07/21 03:25:17;;;;;;;;;;;;;;;22.52;100.00;99266.63;5051702;28;831;-59
2023/07/21 03:27:46;;;;;;;;;;;;;;;22.64;100.00;99273.16;5051706;28;818;-59
2023/07/21 03:30:14;;;;;;;;;;;;;;;22.69;100.00;99274.47;5051483;28;1882;-59
2023/07/21 03:32:45;;;;;;;;;;;;;;;22.80;100.00;99277.38;5051653;28;909;-59
2023/07/21 03:35:12;;;;;;;;;;;;;;;22.91;100.00;99279.50;5051650;28;854;-59
2023/07/21 03:37:39;;;;;;;;;;;;;;;22.90;100.00;99281.56;5051921;28;869;-59
2023/07/21 03:40:06;;;;;;;;;;;;;;;22.95;100.00;99278.00;5051926;28;825;-59
2023/07/21 03:42:34;;;;;;;;;;;;;;;22.97;100.00;99283.13;5051540;28;846;-59
2023/07/21 03:45:04;;;;;;;;;;;;;;;22.96;100.00;99284.44;5051573;28;803;-60
2023/07/21 03:47:35;;;;;;;;;;;;;;;23.00;100.00;99291.41;5051480;28;1200;-59
2023/07/21 03:50:03;;;;;;;;;;;;;;;23.07;100.00;99284.53;5051624;28;1981;-59
2023/07/21 03:52:29;;;;;;;;;;;;;;;23.15;100.00;99287.63;5051447;28;791;-59
2023/07/21 03:54:56;;;;;;;;;;;;;;;23.21;100.00;99289.25;5051516;28;906;-60
2023/07/21 03:57:23;;;;;;;;;;;;;;;23.28;100.00;99285.19;5051517;28;849;-59
2023/07/21 03:59:50;;;;;;;;;;;;;;;23.31;100.00;99301.06;5051426;28;823;-59
2023/07/21 04:02:17;;;;;;;;;;;;;;;23.39;100.00;99304.22;5051752;28;885;-58
2023/07/21 04:04:48;;;;;;;;;;;;;;;23.48;100.00;99301.19;5051631;28;799;-59
2023/07/21 04:07:15;;;;;;;;;;;;;;;23.59;100.00;99303.28;5051367;28;811;-60
2023/07/21 04:09:43;;;;;;;;;;;;;;;23.70;100.00;99308.22;5051638;28;1882;-58
2023/07/21 04:12:10;;;;;;;;;;;;;;;23.78;100.00;99307.25;5055044;28;811;-60
2023/07/21 04:14:37;;;;;;;;;;;;;;;23.89;100.00;99319.88;5055200;28;815;-59
2023/07/21 04:17:04;;;;;;;;;;;;;;;23.96;100.00;99322.22;5055061;28;866;-59
2023/07/21 04:19:30;;;;;;;;;;;;;;;24.06;100.00;99320.72;5054934;28;880;-59
2023/07/21 04:22:00;;;;;;;;;;;;;;;24.14;100.00;99327.41;5054895;28;940;-59
2023/07/21 04:24:27;;;;;;;;;;;;;;;24.25;100.00;99330.28;5054888;28;894;-59
2023/07/21 04:26:55;;;;;;;;;;;;;;;24.34;100.00;99339.78;5054693;28;987;-58
2023/07/21 04:29:22;;;;;;;;;;;;;;;24.40;100.00;99344.16;5054651;28;1969;-58
2023/07/21 04:31:49;;;;;;;;;;;;;;;24.49;100.00;99353.72;5036818;28;1219;-59
2023/07/21 04:34:16;;;;;;;;;;;;;;;24.57;100.00;99351.94;5055006;28;881;-59
2023/07/21 04:36:43;;;;;;;;;;;;;;;24.64;100.00;99357.88;5037060;28;1240;-59
2023/07/21 04:39:10;;;;;;;;;;;;;;;24.73;100.00;99368.16;5054579;28;876;-59
2023/07/21 04:41:37;;;;;;;;;;;;;;;24.84;100.00;99375.91;5054638;28;838;-59
2023/07/21 04:44:04;;;;;;;;;;;;;;;24.92;100.00;99370.50;5036828;28;882;-59
2023/07/21 04:46:30;;;;;;;;;;;;;;;25.03;100.00;99379.75;5054628;28;976;-59
2023/07/21 04:48:58;;;;;;;;;;;;;;;25.15;100.00;99388.25;5036397;28;1906;-58
2023/07/21 04:51:25;;;;;;;;;;;;;;;25.27;100.00;99381.34;5054253;28;956;-58
2023/07/21 04:53:53;;;;;;;;;;;;;;;25.37;100.00;99384.66;5054355;28;811;-58
2023/07/21 04:56:20;;;;;;;;;;;;;;;25.50;100.00;99387.75;5054208;28;907;-59
2023/07/21 04:58:47;;;;;;;;;;;;;;;25.59;100.00;99392.38;5054223;28;838;-59
2023/07/21 05:01:15;;;;;;;;;;;;;;;25.68;100.00;99392.06;5054156;28;815;-58
2023/07/21 05:03:42;;;;;;;;;;;;;;;25.81;100.00;99397.97;5054200;28;862;-59
2023/07/21 05:06:10;;;;;;;;;;;;;;;25.95;100.00;99406.72;5054070;28;965;-59
2023/07/21 05:08:35;;;;;;;;;;;;;;;26.03;100.00;99408.50;5054001;28;1886;-59
2023/07/21 05:11:02;;;;;;;;;;;;;;;26.08;100.00;99399.19;5054255;28;829;-58
2023/07/21 05:13:29;;;;;;;;;;;;;;;26.20;100.00;99404.81;5054022;28;810;-58
2023/07/21 05:15:58;;;;;;;;;;;;;;;26.40;100.00;99409.38;5053911;28;881;-59
2023/07/21 05:18:25;;;;;;;;;;;;;;;26.57;100.00;99412.16;5053903;28;819;-59
2023/07/21 05:20:51;;;;;;;;;;;;;;;26.51;100.00;99420.66;5053490;28;861;-59
2023/07/21 05:23:19;;;;;;;;;;;;;;;26.51;100.00;99434.06;5053957;28;1162;-59
2023/07/21 05:25:46;;;;;;;;;;;;;;;26.50;100.00;99427.63;5053718;28;905;-58
2023/07/21 05:28:14;;;;;;;;;;;;;;;26.48;100.00;99425.31;5053076;28;1885;-59
2023/07/21 05:30:44;;;;;;;;;;;;;;;26.45;100.00;99423.50;5053311;28;841;-59
2023/07/21 05:33:10;;;;;;;;;;;;;;;26.44;100.00;99426.88;5053000;28;751;-59
2023/07/21 05:35:38;;;;;;;;;;;;;;;26.55;100.00;99438.16;5053781;28;837;-58
2023/07/21 05:38:05;;;;;;;;;;;;;;;26.66;100.00;99435.28;5053365;28;899;-59
2023/07/21 05:40:32;;;;;;;;;;;;;;;26.74;100.00;99432.69;5053444;28;850;-59
2023/07/21 05:43:00;;;;;;;;;;;;;;;26.81;100.00;99437.00;5053407;28;826;-58
2023/07/21 05:45:25;;;;;;;;;;;;;;;26.98;100.00;99434.84;5052848;28;928;-58
2023/07/21 05:47:52;;;;;;;;;;;;;;;27.19;100.00;99449.41;5053056;28;1391;-59
2023/07/21 05:50:20;;;;;;;;;;;;;;;27.36;100.00;99440.03;5052791;28;1906;-58
2023/07/21 05:52:54;;;;;;;;;;;;;;;27.52;100.00;99441.94;5053183;28;885;-58
2023/07/21 05:55:20;;;;;;;;;;;;;;;27.60;100.00;99444.97;5052917;28;800;-58
2023/07/21 05:57:47;;;;;;;;;;;;;;;27.64;100.00;99462.47;5053217;28;865;-59
2023/07/21 06:00:15;;;;;;;;;;;;;;;27.62;100.00;99465.84;5053110;28;864;-59
2023/07/21 06:02:43;;;;;;;;;;;;;;;27.77;100.00;99464.69;5034883;28;1251;-59
2023/07/21 06:05:10;;;;;;;;;;;;;;;27.73;100.00;99470.66;5052726;28;807;-59
2023/07/21 06:07:42;;;;;;;;;;;;;;;27.79;100.00;99471.38;5052798;28;898;-59
2023/07/21 06:10:11;;;;;;;;;;;;;;;28.09;100.00;99467.75;5052763;28;2017;-58
2023/07/21 06:12:39;;;;;;;;;;;;;;;28.46;100.00;99460.59;5052795;28;889;-59
2023/07/21 06:15:09;;;;;;;;;;;;;;;28.85;100.00;99462.19;5052740;28;982;-58
2023/07/21 06:17:36;;;;;;;;;;;;;;;29.42;100.00;99473.50;5052693;28;837;-59
2023/07/21 06:20:04;;;;;;;;;;;;;;;29.86;100.00;99466.31;5052934;28;786;-58
2023/07/21 06:22:32;;;;;;;;;;;;;;;30.47;100.00;99474.22;5052660;28;806;-59
2023/07/21 06:24:59;;;;;;;;;;;;;;;31.18;98.81;99471.69;5052550;28;869;-59
2023/07/21 06:27:27;;;;;;;;;;;;;;;31.55;100.00;99476.25;5052445;28;889;-59
2023/07/21 06:29:54;;;;;;;;;;;;;;;31.86;100.00;99480.13;5052369;28;1948;-59
2023/07/21 06:32:23;;;;;;;;;;;;;;;31.94;100.00;99485.88;5051825;28;862;-59
2023/07/21 06:34:51;;;;;;;;;;;;;;;32.03;100.00;99496.06;5052747;28;803;-57
2023/07/21 06:37:18;;;;;;;;;;;;;;;31.89;100.00;99499.00;5052613;28;775;-57
2023/07/21 06:39:48;;;;;;;;;;;;;;;32.00;100.00;99495.09;5052411;28;854;-57
2023/07/21 06:42:15;;;;;;;;;;;;;;;32.51;100.00;99485.13;5052683;28;866;-57
2023/07/21 06:44:42;;;;;;;;;;;;;;;33.14;100.00;99502.81;5052074;28;822;-57
2023/07/21 06:47:08;;;;;;;;;;;;;;;33.47;96.09;99491.59;5052478;28;1338;-57
2023/07/21 06:49:35;;;;;;;;;;;;;;;33.71;100.00;99498.13;5052304;28;1982;-57
2023/07/21 06:52:03;;;;;;;;;;;;;;;34.35;98.60;99490.44;5052158;28;910;-57
2023/07/21 06:54:30;;;;;;;;;;;;;;;34.80;92.28;99488.75;5051236;28;1517;-57
2023/07/21 06:57:00;;;;;;;;;;;;;;;34.53;87.28;99494.97;5052134;28;820;-58
2023/07/21 06:59:27;;;;;;;;;;;;;;;35.22;92.74;99490.31;5033982;28;1655;-57
2023/07/21 07:01:52;;;;;;;;;;;;;;;36.04;92.70;99488.72;5051451;28;888;-57
2023/07/21 07:04:21;;;;;;;;;;;;;;;36.12;87.90;99490.16;5051727;28;808;-57
2023/07/21 07:06:48;;;;;;;;;;;;;;;35.80;81.06;99485.28;5032197;28;884;-58
2023/07/21 07:09:16;;;;;;;;;;;;;;;35.38;69.49;99491.75;5031871;28;1959;-57
2023/07/21 07:11:42;;;;;;;;;;;;;;;34.93;71.31;99484.88;5032142;28;803;-57
2023/07/21 07:14:10;;;;;;;;;;;;;;;35.21;64.73;99494.50;5031953;28;866;-58
2023/07/21 07:16:37;;;;;;;;;;;;;;;35.17;64.79;99498.56;5031937;28;840;-57
2023/07/21 07:19:04;;;;;;;;;;;;;;;34.81;60.12;99495.28;5031899;28;831;-57
2023/07/21 07:21:31;;;;;;;;;;;;;;;34.61;60.88;99489.22;5031841;28;795;-57
2023/07/21 07:23:58;;;;;;;;;;;;;;;34.62;61.56;99496.47;5031815;28;839;-57
2023/07/21 07:26:26;;;;;;;;;;;;;;;35.14;60.91;99498.97;5032008;28;901;-57
2023/07/21 07:28:52;;;;;;;;;;;;;;;35.85;63.85;99498.69;5032047;28;1910;-58
2023/07/21 07:31:19;;;;;;;;;;;;;;;36.65;61.85;99493.84;5031746;28;831;-58
2023/07/21 07:33:46;;;;;;;;;;;;;;;36.96;60.84;99493.47;5031859;28;854;-58
2023/07/21 07:36:13;;;;;;;;;;;;;;;36.70;56.27;99501.50;5031787;28;886;-58
2023/07/21 07:38:40;;;;;;;;;;;;;;;36.05;56.56;99493.13;5031654;28;878;-57
2023/07/21 07:41:10;;;;;;;;;;;;;;;35.90;60.32;99500.53;5031705;28;889;-58
2023/07/21 07:43:37;;;;;;;;;;;;;;;36.81;61.76;99496.53;5014290;28;897;-57
2023/07/21 07:46:07;;;;;;;;;;;;;;;37.30;52.80;99500.50;5035736;28;895;-59
2023/07/21 07:48:34;;;;;;;;;;;;;;;37.08;54.88;99499.44;5035325;28;1969;-58
2023/07/21 07:51:08;;;;;;;;;;;;;;;37.52;53.77;99513.06;5035555;28;819;-58
2023/07/21 07:53:35;;;;;;;;;;;;;;;38.26;55.78;99516.66;5035715;28;826;-58
2023/07/21 07:56:03;;;;;;;;;;;;;;;38.63;52.41;99516.53;5035426;28;869;-58
2023/07/21 07:58:30;;;;;;;;;;;;;;;37.90;46.56;99512.47;5035425;28;1262;-57
2023/07/21 08:00:58;;;;;;;;;;;;;;;38.11;49.12;99514.03;5035467;28;1267;-59
2023/07/21 08:03:25;;;;;;;;;;;;;;;38.67;48.54;99516.84;5035525;28;881;-59
2023/07/21 08:05:52;;;;;;;;;;;;;;;38.65;43.28;99515.94;5035471;28;870;-59
2023/07/21 08:08:21;;;;;;;;;;;;;;;38.35;45.66;99512.25;5035354;28;1894;-59
2023/07/21 08:10:49;;;;;;;;;;;;;;;38.15;42.61;99515.13;5035289;28;885;-58
2023/07/21 08:13:15;;;;;;;;;;;;;;;37.76;40.74;99508.47;5035302;28;822;-58
2023/07/21 08:15:43;;;;;;;;;;;;;;;37.28;40.49;99506.88;5035042;28;803;-60
2023/07/21 08:18:12;;;;;;;;;;;;;;;37.59;41.23;99510.06;5035136;28;826;-59
2023/07/21 08:20:40;;;;;;;;;;;;;;;38.10;39.93;99510.41;5034963;28;799;-59
2023/07/21 08:23:07;;;;;;;;;;;;;;;38.26;39.68;99513.00;5034992;28;857;-58
2023/07/21 08:25:33;;;;;;;;;;;;;;;38.19;37.57;99514.66;5034722;28;947;-59
2023/07/21 08:28:03;;;;;;;;;;;;;;;37.48;37.38;99507.72;5034870;28;895;-58
2023/07/21 08:30:30;;;;;;;;;;;;;;;37.60;36.69;99507.97;5034742;28;894;-58
2023/07/21 08:32:58;;;;;;;;;;;;;;;37.57;36.97;99507.03;5034823;28;822;-59
2023/07/21 08:35:27;;;;;;;;;;;;;;;37.72;36.58;99511.78;5034726;28;849;-58
2023/07/21 08:37:54;;;;;;;;;;;;;;;37.49;35.66;99514.25;5034711;28;863;-59
2023/07/21 08:40:22;;;;;;;;;;;;;;;37.59;36.05;99512.94;5034610;28;811;-59
2023/07/21 08:42:50;;;;;;;;;;;;;;;37.79;36.32;99513.03;5034579;28;831;-59
2023/07/21 08:45:19;;;;;;;;;;;;;;;37.91;34.52;99513.97;5034592;28;874;-59
2023/07/21 08:47:47;;;;;;;;;;;;;;;37.75;35.34;99509.84;5034579;28;1220;-59
2023/07/21 08:50:18;;;;;;;;;;;;;;;37.82;34.99;99513.94;5034337;28;1981;-58
2023/07/21 08:52:44;;;;;;;;;;;;;;;37.85;36.00;99504.09;5034406;28;1201;-59
2023/07/21 08:55:11;;;;;;;;;;;;;;;37.91;34.92;99513.97;5033882;28;843;-58
2023/07/21 08:57:42;;;;;;;;;;;;;;;37.76;35.75;99512.09;5033977;28;858;-59
2023/07/21 09:00:10;;;;;;;;;;;;;;;38.05;34.00;99511.47;5034486;28;885;-58
2023/07/21 09:02:38;;;;;;;;;;;;;;;37.94;34.30;99514.88;5034479;28;803;-58
2023/07/21 09:05:04;;;;;;;;;;;;;;;37.81;34.97;99521.81;5034181;28;897;-59
2023/07/21 09:07:32;;;;;;;;;;;;;;;38.04;35.11;99514.94;5034186;28;791;-58
2023/07/21 09:09:58;;;;;;;;;;;;;;;38.18;34.82;99513.16;5034312;28;1947;-58
2023/07/21 09:12:34;;;;;;;;;;;;;;;38.44;34.57;99513.63;5034054;28;803;-58
2023/07/21 09:15:07;;;;;;;;;;;;;;;38.58;33.24;99520.50;5033997;28;904;-59
2023/07/21 09:48:32;;;;;;;;;;;;;;;35.97;34.54;99507.56;5010986;28;1902;-69
2023/07/21 09:51:00;;;;;;;;;;;;;;;36.25;35.62;99497.72;5013795;28;815;-69
2023/07/21 09:53:39;;;;;;;;;;;;;;;36.39;34.14;99501.03;5013562;28;842;-70
2023/07/21 09:56:07;;;;;;;;;;;;;;;36.26;34.05;99496.38;5013497;28;850;-68
2023/07/21 09:58:34;;;;;;;;;;;;;;;36.22;34.72;99498.16;5013416;28;807;-69
2023/07/21 10:01:02;;;;;;;;;;;;;;;36.36;34.57;99496.47;5013799;28;881;-69
2023/07/21 10:03:30;;;;;;;;;;;;;;;36.46;34.40;99496.56;5013286;28;843;-68
2023/07/21 10:05:59;;;;;;;;;;;;;;;36.51;33.33;99493.44;5013376;28;854;-68
2023/07/21 10:08:31;;;;;;;;;;;;;;;36.72;32.71;99490.16;5012439;28;1985;-66
2023/07/21 10:10:58;;;;;;;;;;;;;;;36.88;32.35;99489.94;5013264;28;826;-66
2023/07/21 10:13:26;;;;;;;;;;;;;;;36.46;34.10;99491.56;5013512;28;842;-74
2023/07/21 10:16:09;;;;;;;;;;;;;;;35.97;34.77;99493.19;5013151;28;865;-74
2023/07/21 10:18:36;;;;;;;;;;;;;;;35.32;35.31;99491.97;5013406;28;1259;-74
2023/07/21 10:21:03;;;;;;;;;;;;;;;35.66;34.69;99489.84;5013308;28;818;-68
2023/07/21 10:23:34;;;;;;;;;;;;;;;36.47;34.22;99484.47;5013238;28;834;-67
2023/07/21 10:26:03;;;;;;;;;;;;;;;37.14;31.79;99489.19;5012879;28;897;-68
2023/07/21 10:28:34;;;;;;;;;;;;;;;37.33;31.50;99484.91;5013146;28;1894;-67
2023/07/21 10:31:19;;;;;;;;;;;;;;;37.56;30.59;99488.22;5013174;28;823;-68
2023/07/21 10:34:01;;;;;;;;;;;;;;;37.57;30.82;99495.50;5012815;28;795;-67
2023/07/21 10:36:49;;;;;;;;;;;;;;;36.56;35.27;99497.41;4995177;28;1371;-72
2023/07/21 10:39:22;;;;;;;;;;;;;;;35.68;37.77;99498.63;5012882;28;1181;-71
2023/07/21 10:41:50;;;;;;;;;;;;;;;35.08;39.53;99496.28;5012905;28;811;-68
2023/07/21 10:44:17;;;;;;;;;;;;;;;34.77;40.22;99496.44;5012733;28;839;-69
2023/07/21 10:46:45;;;;;;;;;;;;;;;34.55;40.84;99492.28;5012923;28;942;-74
2023/07/21 10:49:13;;;;;;;;;;;;;;;34.77;39.85;99492.81;4993138;28;1986;-72
2023/07/21 10:51:42;;;;;;;;;;;;;;;35.71;38.74;99485.97;4993152;28;855;-68
2023/07/21 10:54:08;;;;;;;;;;;;;;;36.25;39.12;99485.47;4992914;28;843;-68
2023/07/21 10:56:44;;;;;;;;;;;;;;;36.47;38.94;99492.34;4992901;28;831;-67
2023/07/21 10:59:10;;;;;;;;;;;;;;;36.00;39.64;99497.78;4993278;28;805;-71
2023/07/21 11:01:44;;;;;;;;;;;;;;;35.49;40.28;99488.41;4993264;28;858;-68
2023/07/21 11:04:11;;;;;;;;;;;;;;;36.01;40.52;99487.03;4992780;28;862;-68
2023/07/21 11:06:43;;;;;;;;;;;;;;;36.99;39.31;99486.50;4992665;28;862;-65
2023/07/21 11:09:11;;;;;;;;;;;;;;;37.57;36.97;99492.59;4992611;28;1894;-66
2023/07/21 11:11:44;;;;;;;;;;;;;;;37.87;36.14;99493.47;4992567;28;859;-67
2023/07/21 11:14:11;;;;;;;;;;;;;;;38.02;35.79;99495.31;4992620;28;819;-63
2023/07/21 11:16:41;;;;;;;;;;;;;;;37.76;36.00;99497.69;4992445;28;1025;-68
2023/07/21 11:19:08;;;;;;;;;;;;;;;37.43;36.13;99497.25;4992337;28;1317;-64
2023/07/21 11:21:34;;;;;;;;;;;;;;;37.56;36.26;99493.97;4975408;28;1430;-69
2023/07/21 11:24:00;;;;;;;;;;;;;;;37.66;35.91;99490.38;4992511;28;827;-66
2023/07/21 11:26:26;;;;;;;;;;;;;;;37.81;35.45;99492.97;4974964;28;1232;-65
2023/07/21 11:28:51;;;;;;;;;;;;;;;37.86;35.01;99489.06;4992400;28;1886;-67
2023/07/21 11:31:18;;;;;;;;;;;;;;;37.66;35.16;99490.38;4992736;28;901;-68
2023/07/21 11:33:44;;;;;;;;;;;;;;;37.49;35.70;99497.72;4992419;28;819;-69
2023/07/21 11:36:18;;;;;;;;;;;;;;;37.48;35.51;99496.19;5012059;28;795;-69
2023/07/21 11:39:11;;;;;;;;;;;;;;;37.61;35.74;99500.06;5012225;28;1257;-68
2023/07/21 11:41:39;;;;;;;;;;;;;;;38.04;34.57;99497.63;5008934;28;1734;-65
2023/07/21 11:44:10;;;;;;;;;;;;;;;38.20;34.63;99490.22;5011952;28;824;-66
2023/07/21 11:46:36;;;;;;;;;;;;;;;38.12;34.28;99493.25;5011955;28;1059;-66
2023/07/21 11:49:10;;;;;;;;;;;;;;;37.94;34.76;99500.44;5011640;28;1983;-66
2023/07/21 11:51:45;;;;;;;;;;;;;;;38.39;34.81;99503.91;5011977;28;815;-66
2023/07/21 11:54:20;;;;;;;;;;;;;;;38.78;33.79;99504.66;5011877;28;897;-68
2023/07/21 11:56:46;;;;;;;;;;;;;;;38.35;33.92;99507.25;5011975;28;799;-66
2023/07/21 11:59:11;;;;;;;;;;;;;;;38.16;34.47;99510.09;5011984;28;794;-67
2023/07/21 12:01:38;;;;;;;;;;;;;;;38.14;34.62;99510.72;5011771;28;803;-67
2023/07/21 12:04:04;;;;;;;;;;;;;;;38.32;33.87;99517.09;5012023;28;834;-67
2023/07/21 12:06:30;;;;;;;;;;;;;;;38.32;33.91;99519.97;5011686;28;877;-66
2023/07/21 12:08:55;;;;;;;;;;;;;;;38.06;33.92;99518.72;5011602;28;1906;-66
2023/07/21 12:11:21;;;;;;;;;;;;;;;37.92;34.57;99517.63;4993997;28;1216;-64
2023/07/21 12:13:47;;;;;;;;;;;;;;;38.08;34.75;99515.25;5011813;28;826;-66
2023/07/21 12:16:12;;;;;;;;;;;;;;;38.64;33.34;99520.19;5011545;28;815;-68
2023/07/21 12:18:42;;;;;;;;;;;;;;;39.24;32.50;99513.72;5011819;28;886;-64
2023/07/21 12:21:08;;;;;;;;;;;;;;;39.01;32.72;99500.56;5011722;28;881;-69
2023/07/21 12:23:34;;;;;;;;;;;;;;;38.70;32.94;99506.19;5011667;28;811;-68
2023/07/21 12:26:00;;;;;;;;;;;;;;;38.19;33.48;99511.78;5011780;28;827;-68
2023/07/21 12:28:25;;;;;;;;;;;;;;;38.15;33.58;99511.47;5011958;28;1945;-69
2023/07/21 12:30:51;;;;;;;;;;;;;;;38.52;33.20;99509.25;5012257;28;858;-70
2023/07/21 12:33:17;;;;;;;;;;;;;;;37.84;34.19;99502.56;5015080;28;889;-70
2023/07/21 12:35:42;;;;;;;;;;;;;;;38.16;34.21;99507.97;5015278;28;866;-69
2023/07/21 12:38:08;;;;;;;;;;;;;;;38.94;32.88;99495.66;5015010;28;839;-72
2023/07/21 12:40:34;;;;;;;;;;;;;;;38.83;32.23;99504.97;5015080;28;838;-73
2023/07/21 12:42:59;;;;;;;;;;;;;;;38.45;33.39;99509.38;5015417;28;803;-72
2023/07/21 12:45:25;;;;;;;;;;;;;;;38.27;33.73;99514.53;5015023;28;877;-67
2023/07/21 12:47:50;;;;;;;;;;;;;;;38.42;33.28;99525.03;5014614;28;1155;-68
2023/07/21 12:50:16;;;;;;;;;;;;;;;38.18;33.80;99527.56;5015161;28;1969;-68
2023/07/21 12:52:42;;;;;;;;;;;;;;;38.48;33.29;99523.34;5014763;28;866;-69
2023/07/21 12:55:07;;;;;;;;;;;;;;;38.71;32.63;99522.16;5014721;28;942;-69
2023/07/21 12:57:33;;;;;;;;;;;;;;;38.58;32.77;99518.38;5014674;28;826;-64
2023/07/21 12:59:59;;;;;;;;;;;;;;;39.01;32.52;99503.47;5014731;28;902;-70
2023/07/21 13:02:25;;;;;;;;;;;;;;;39.02;32.40;99504.97;5014809;28;854;-70
2023/07/21 13:04:50;;;;;;;;;;;;;;;38.95;32.43;99503.75;4997042;28;1306;-70
2023/07/21 13:07:16;;;;;;;;;;;;;;;38.57;32.83;99501.66;5014807;28;1237;-69
2023/07/21 13:09:41;;;;;;;;;;;;;;;38.17;33.15;99506.63;5014416;28;1886;-68
2023/07/21 13:12:07;;;;;;;;;;;;;;;38.00;33.42;99498.03;5014353;28;848;-70
2023/07/21 13:14:33;;;;;;;;;;;;;;;37.99;33.64;99502.31;5014182;28;842;-70
2023/07/21 13:16:59;;;;;;;;;;;;;;;38.21;33.66;99497.50;5014271;28;815;-68
2023/07/21 13:19:24;;;;;;;;;;;;;;;38.20;33.89;99504.66;5014267;28;851;-70
2023/07/21 13:21:51;;;;;;;;;;;;;;;38.18;33.85;99508.13;5014307;28;918;-70
2023/07/21 13:24:16;;;;;;;;;;;;;;;38.28;34.03;99499.50;5014186;28;826;-72
2023/07/21 13:26:42;;;;;;;;;;;;;;;38.31;33.66;99509.06;4996753;28;2292;-72
2023/07/21 13:29:10;;;;;;;;;;;;;;;38.40;33.75;99505.41;5014117;28;1889;-69
2023/07/21 13:31:36;;;;;;;;;;;;;;;38.65;33.10;99498.63;5014151;28;835;-69
2023/07/21 13:34:02;;;;;;;;;;;;;;;38.57;33.14;99507.41;5013973;28;881;-69